createdAt,value
2023-03-30T00:00:46.442Z,8.67
2023-03-30T00:01:48.636Z,4.56
2023-03-30T00:02:51.046Z,5.90
2023-03-30T00:03:53.828Z,8.60
2023-03-30T00:04:57.368Z,7.40
2023-03-30T00:06:02.908Z,4.80
2023-03-30T00:07:04.893Z,6.50
2023-03-30T00:08:06.843Z,6.70
2023-03-30T00:09:08.720Z,4.78
2023-03-30T00:10:12.352Z,3.80
2023-03-30T00:11:15.365Z,4.70
2023-03-30T00:12:17.348Z,7.30
2023-03-30T00:13:19.324Z,7.60
2023-03-30T00:14:21.813Z,6.50
2023-03-30T00:15:23.791Z,4.50
2023-03-30T00:16:26.294Z,3.20
2023-03-30T00:17:28.544Z,6.70
2023-03-30T00:18:30.559Z,6.30
2023-03-30T00:19:33.009Z,6.00
2023-03-30T00:20:35.113Z,6.40
2023-03-30T00:21:37.524Z,6.80
2023-03-30T00:22:44.002Z,7.70
2023-03-30T00:23:46.016Z,6.30
2023-03-30T00:24:48.605Z,7.70
2023-03-30T00:25:50.865Z,9.20
2023-03-30T00:26:52.828Z,6.70
2023-03-30T00:27:54.704Z,5.44
2023-03-30T00:28:58.236Z,5.80
2023-03-30T00:30:00.251Z,4.36
2023-03-30T00:31:02.847Z,5.40
2023-03-30T00:32:05.628Z,9.00
2023-03-30T00:33:07.773Z,4.60
2023-03-30T00:34:11.711Z,5.80
2023-03-30T00:35:13.963Z,8.30
2023-03-30T00:36:17.124Z,4.50
2023-03-30T00:37:19.699Z,6.00
2023-03-30T00:38:22.216Z,5.00
2023-03-30T00:39:24.170Z,3.60
2023-03-30T00:40:26.050Z,3.33
2023-03-30T00:41:27.947Z,5.44
2023-03-30T00:42:29.998Z,5.70
2023-03-30T00:43:32.247Z,5.44
2023-03-30T00:45:06.919Z,0.50
2023-03-30T00:46:09.624Z,7.50
2023-03-30T00:47:11.748Z,9.00
2023-03-30T00:48:21.985Z,7.50
2023-03-30T00:49:24.953Z,8.00
2023-03-30T00:51:46.679Z,9.20
2023-03-30T00:52:49.759Z,10.70
2023-03-30T00:53:54.072Z,11.90
2023-03-30T00:54:58.236Z,8.30
2023-03-30T00:56:01.503Z,6.50
2023-03-30T00:57:04.035Z,12.55
2023-03-30T00:58:06.834Z,11.55
2023-03-30T00:59:08.759Z,7.40
2023-03-30T01:00:12.353Z,15.70
2023-03-30T01:01:15.716Z,12.40
2023-03-30T01:04:52.383Z,13.60
2023-03-30T01:05:54.924Z,9.90
2023-03-30T01:06:57.401Z,8.40
2023-03-30T01:07:59.346Z,13.80
2023-03-30T01:09:02.457Z,13.10
2023-03-30T01:10:06.852Z,13.70
2023-03-30T01:11:08.972Z,15.20
2023-03-30T01:12:10.926Z,9.60
2023-03-30T01:13:13.508Z,10.60
2023-03-30T01:14:16.066Z,16.20
2023-03-30T01:15:18.030Z,10.50
2023-03-30T01:16:51.229Z,12.56
2023-03-30T01:18:19.800Z,11.10
2023-03-30T01:21:31.223Z,13.10
2023-03-30T01:22:56.984Z,11.70
2023-03-30T01:24:28.385Z,13.70
2023-03-30T01:25:58.697Z,11.60
2023-03-30T01:27:10.209Z,7.90
2023-03-30T01:28:30.930Z,7.40
2023-03-30T01:29:48.939Z,12.00
2023-03-30T01:31:12.255Z,10.30
2023-03-30T01:32:39.482Z,6.00
2023-03-30T01:33:57.667Z,5.20
2023-03-30T01:35:20.744Z,8.50
2023-03-30T01:36:47.748Z,6.10
2023-03-30T01:38:02.874Z,5.30
2023-03-30T01:40:47.584Z,3.90
2023-03-30T01:42:08.825Z,4.90
2023-03-30T01:44:51.272Z,5.40
2023-03-30T01:47:29.130Z,4.00
2023-03-30T01:48:41.217Z,4.10
2023-03-30T01:49:56.777Z,4.60
2023-03-30T01:51:06.031Z,3.10
2023-03-30T01:52:31.815Z,6.00
2023-03-30T01:53:44.054Z,2.60
2023-03-30T01:54:57.766Z,5.40
2023-03-30T01:56:09.593Z,6.10
2023-03-30T01:58:30.355Z,8.90
2023-03-30T02:00:59.031Z,6.00
2023-03-30T02:02:01.887Z,6.60
2023-03-30T02:03:09.130Z,5.60
2023-03-30T02:04:11.311Z,4.20
2023-03-30T02:05:14.108Z,4.50
2023-03-30T02:06:37.773Z,4.70
2023-03-30T02:07:39.922Z,5.10
2023-03-30T02:08:41.854Z,4.50
2023-03-30T02:09:44.714Z,4.00
2023-03-30T02:10:47.376Z,3.20
2023-03-30T02:11:50.531Z,3.00
2023-03-30T02:12:52.566Z,3.70
2023-03-30T02:13:54.506Z,3.70
2023-03-30T02:16:16.178Z,3.30
2023-03-30T02:17:21.719Z,3.60
2023-03-30T02:18:23.783Z,2.40
2023-03-30T02:19:25.770Z,2.20
2023-03-30T02:20:29.281Z,7.30
2023-03-30T02:21:32.487Z,5.70
2023-03-30T02:22:34.491Z,5.50
2023-03-30T02:23:38.961Z,5.30
2023-03-30T02:24:42.538Z,3.80
2023-03-30T02:25:45.224Z,4.80
2023-03-30T02:26:48.483Z,3.10
2023-03-30T02:27:50.461Z,2.30
2023-03-30T02:28:52.426Z,5.50
2023-03-30T02:29:55.773Z,2.00
2023-03-30T02:30:57.851Z,2.40
2023-03-30T02:32:01.915Z,1.90
2023-03-30T02:33:05.571Z,4.10
2023-03-30T02:34:23.524Z,3.20
2023-03-30T02:35:41.636Z,1.20
2023-03-30T02:37:08.393Z,4.20
2023-03-30T02:38:29.091Z,1.00
2023-03-30T02:39:51.940Z,2.40
2023-03-30T02:41:09.728Z,2.80
2023-03-30T02:42:43.863Z,2.80
2023-03-30T02:44:09.509Z,3.60
2023-03-30T02:45:32.505Z,3.20
2023-03-30T02:46:54.869Z,2.00
2023-03-30T02:49:21.938Z,4.30
2023-03-30T02:50:47.957Z,5.20
2023-03-30T02:52:24.603Z,4.80
2023-03-30T02:54:54.068Z,9.20
2023-03-30T02:56:17.471Z,6.30
2023-03-30T02:59:09.440Z,7.20
2023-03-30T03:00:32.656Z,10.90
2023-03-30T03:01:38.667Z,6.80
2023-03-30T03:04:01.374Z,5.10
2023-03-30T03:06:12.715Z,6.30
2023-03-30T03:07:18.019Z,6.10
2023-03-30T03:08:27.859Z,2.80
2023-03-30T03:09:29.938Z,8.40
2023-03-30T03:10:33.620Z,5.40
2023-03-30T03:11:36.450Z,5.40
2023-03-30T03:12:39.509Z,8.20
2023-03-30T03:13:41.672Z,6.30
2023-03-30T03:14:43.893Z,6.80
2023-03-30T03:15:46.984Z,4.36
2023-03-30T03:16:49.031Z,6.00
2023-03-30T03:17:51.839Z,7.50
2023-03-30T03:18:54.013Z,6.00
2023-03-30T03:19:56.062Z,6.90
2023-03-30T03:20:58.473Z,5.40
2023-03-30T03:22:01.720Z,5.50
2023-03-30T03:23:05.552Z,4.33
2023-03-30T03:24:09.557Z,5.90
2023-03-30T03:25:22.298Z,4.40
2023-03-30T03:26:26.188Z,4.70
2023-03-30T03:27:30.698Z,2.40
2023-03-30T03:30:06.199Z,6.20
2023-03-30T03:31:10.692Z,5.70
2023-03-30T03:32:15.781Z,4.30
2023-03-30T03:33:20.028Z,7.40
2023-03-30T03:34:24.087Z,4.20
2023-03-30T03:35:31.186Z,4.40
2023-03-30T03:36:34.204Z,4.80
2023-03-30T03:37:37.582Z,4.80
2023-03-30T03:38:40.144Z,5.90
2023-03-30T03:39:42.173Z,6.00
2023-03-30T03:40:48.859Z,7.40
2023-03-30T03:41:50.885Z,4.60
2023-03-30T03:42:52.958Z,5.80
2023-03-30T03:43:55.322Z,7.80
2023-03-30T03:44:58.217Z,4.45
2023-03-30T03:46:00.443Z,4.50
2023-03-30T03:47:02.938Z,2.60
2023-03-30T03:48:06.057Z,3.40
2023-03-30T03:49:19.164Z,4.00
2023-03-30T03:50:21.315Z,4.80
2023-03-30T03:51:23.691Z,3.40
2023-03-30T03:52:26.148Z,5.90
2023-03-30T03:53:28.668Z,5.18
2023-03-30T03:54:33.565Z,3.40
2023-03-30T03:55:35.766Z,4.40
2023-03-30T03:56:38.465Z,4.20
2023-03-30T03:57:40.537Z,5.00
2023-03-30T03:58:43.113Z,4.50
2023-03-30T03:59:45.077Z,6.70
2023-03-30T04:00:48.854Z,5.20
2023-03-30T04:01:51.420Z,6.00
2023-03-30T04:02:53.455Z,5.50
2023-03-30T04:03:55.323Z,5.33
2023-03-30T04:04:57.282Z,11.00
2023-03-30T04:06:00.500Z,6.70
2023-03-30T04:07:02.574Z,7.45
2023-03-30T04:08:05.742Z,6.60
2023-03-30T04:09:07.765Z,3.50
2023-03-30T04:10:15.465Z,4.00
2023-03-30T04:11:22.367Z,7.10
2023-03-30T04:12:43.392Z,8.10
2023-03-30T04:13:47.865Z,13.50
2023-03-30T04:14:55.285Z,10.70
2023-03-30T04:16:15.969Z,7.90
2023-03-30T04:17:29.090Z,7.20
2023-03-30T04:18:31.232Z,9.60
2023-03-30T04:19:35.114Z,7.10
2023-03-30T04:20:53.886Z,5.00
2023-03-30T04:23:18.832Z,7.80
2023-03-30T04:24:22.723Z,8.00
2023-03-30T04:25:24.777Z,8.30
2023-03-30T04:26:33.093Z,6.00
2023-03-30T04:27:43.336Z,6.70
2023-03-30T04:28:47.736Z,8.50
2023-03-30T04:31:22.307Z,10.90
2023-03-30T04:32:43.814Z,7.90
2023-03-30T04:33:52.220Z,7.00
2023-03-30T04:34:56.651Z,7.20
2023-03-30T04:35:58.731Z,4.00
2023-03-30T04:38:26.809Z,6.30
2023-03-30T04:40:46.149Z,7.30
2023-03-30T04:42:06.814Z,8.80
2023-03-30T04:43:14.267Z,5.20
2023-03-30T04:44:20.749Z,6.00
2023-03-30T04:46:45.967Z,9.00
2023-03-30T04:48:01.994Z,6.30
2023-03-30T04:49:22.936Z,8.30
2023-03-30T04:50:40.211Z,6.70
2023-03-30T04:51:44.618Z,7.90
2023-03-30T04:52:51.115Z,6.80
2023-03-30T04:55:17.168Z,9.00
2023-03-30T04:56:33.755Z,11.10
2023-03-30T04:57:38.074Z,9.40
2023-03-30T05:01:26.146Z,6.90
2023-03-30T05:02:37.352Z,7.20
2023-03-30T05:03:48.578Z,7.90
2023-03-30T05:04:52.788Z,7.90
2023-03-30T05:05:59.427Z,5.70
2023-03-30T05:08:18.311Z,5.90
2023-03-30T05:09:34.267Z,8.70
2023-03-30T05:10:48.856Z,6.30
2023-03-30T05:13:12.213Z,8.20
2023-03-30T05:14:18.117Z,5.90
2023-03-30T05:15:37.094Z,6.20
2023-03-30T05:16:47.460Z,7.30
2023-03-30T05:18:01.847Z,8.70
2023-03-30T05:19:19.488Z,5.70
2023-03-30T05:20:29.606Z,6.50
2023-03-30T05:21:39.426Z,5.10
2023-03-30T05:22:52.021Z,3.50
2023-03-30T05:24:14.528Z,6.00
2023-03-30T05:25:30.129Z,8.20
2023-03-30T05:26:37.922Z,9.30
2023-03-30T05:27:42.023Z,3.30
2023-03-30T05:28:47.021Z,8.50
2023-03-30T05:29:51.017Z,8.00
2023-03-30T05:31:01.014Z,9.10
2023-03-30T05:32:10.767Z,7.70
2023-03-30T05:33:21.774Z,10.00
2023-03-30T05:34:42.135Z,8.20
2023-03-30T05:35:49.452Z,6.40
2023-03-30T05:36:59.891Z,5.60
2023-03-30T05:38:13.154Z,7.00
2023-03-30T05:39:33.322Z,5.30
2023-03-30T05:40:37.374Z,10.30
2023-03-30T05:41:58.753Z,9.80
2023-03-30T05:43:15.329Z,6.10
2023-03-30T05:44:36.591Z,11.20
2023-03-30T05:45:47.703Z,7.50
2023-03-30T05:48:13.560Z,9.40
2023-03-30T05:49:23.321Z,6.60
2023-03-30T05:50:27.518Z,7.40
2023-03-30T05:51:31.353Z,7.20
2023-03-30T05:52:38.261Z,6.50
2023-03-30T05:53:43.183Z,6.00
2023-03-30T05:56:11.265Z,7.40
2023-03-30T05:57:15.255Z,9.00
2023-03-30T05:58:28.532Z,9.30
2023-03-30T05:59:32.964Z,10.80
2023-03-30T06:00:39.929Z,7.60
2023-03-30T06:01:43.809Z,11.00
2023-03-30T06:02:45.795Z,5.60
2023-03-30T06:03:50.085Z,12.10
2023-03-30T06:04:53.418Z,10.30
2023-03-30T06:05:56.494Z,14.00
2023-03-30T06:06:59.577Z,10.40
2023-03-30T06:08:01.556Z,8.90
2023-03-30T06:09:04.757Z,9.40
2023-03-30T06:10:09.421Z,11.90
2023-03-30T06:11:12.356Z,10.50
2023-03-30T06:12:16.237Z,13.00
2023-03-30T06:13:18.499Z,8.60
2023-03-30T06:14:22.313Z,8.80
2023-03-30T06:15:26.627Z,10.10
2023-03-30T06:16:39.555Z,10.50
2023-03-30T06:17:42.206Z,8.18
2023-03-30T06:18:44.518Z,6.30
2023-03-30T06:19:48.424Z,8.50
2023-03-30T06:20:50.706Z,9.10
2023-03-30T06:21:53.066Z,9.90
2023-03-30T06:23:03.006Z,10.30
2023-03-30T06:24:06.085Z,10.55
2023-03-30T06:25:09.787Z,7.50
2023-03-30T06:26:12.479Z,9.30
2023-03-30T06:27:15.020Z,8.30
2023-03-30T06:28:17.206Z,6.50
2023-03-30T06:29:19.748Z,8.10
2023-03-30T06:30:22.277Z,6.18
2023-03-30T06:31:26.805Z,7.00
2023-03-30T06:32:33.680Z,10.10
2023-03-30T06:33:38.984Z,9.00
2023-03-30T06:34:43.350Z,6.30
2023-03-30T06:36:58.228Z,3.60
2023-03-30T06:38:00.919Z,9.82
2023-03-30T06:39:06.306Z,3.10
2023-03-30T06:40:09.834Z,4.20
2023-03-30T06:41:12.020Z,5.10
2023-03-30T06:42:15.888Z,7.40
2023-03-30T06:43:35.604Z,7.70
2023-03-30T06:44:46.627Z,13.40
2023-03-30T06:45:55.293Z,12.10
2023-03-30T06:46:57.418Z,9.70
2023-03-30T06:47:59.484Z,9.00
2023-03-30T06:49:02.295Z,7.40
2023-03-30T06:50:19.299Z,8.40
2023-03-30T06:51:21.843Z,6.20
2023-03-30T06:52:24.723Z,6.40
2023-03-30T06:53:27.309Z,5.40
2023-03-30T06:54:29.736Z,5.00
2023-03-30T06:55:33.535Z,5.30
2023-03-30T06:56:35.897Z,4.80
2023-03-30T06:57:39.775Z,4.80
2023-03-30T06:58:41.839Z,5.00
2023-03-30T06:59:44.518Z,2.60
2023-03-30T07:00:57.716Z,5.50
2023-03-30T07:02:14.839Z,3.70
2023-03-30T07:03:35.401Z,6.90
2023-03-30T07:04:51.951Z,6.20
2023-03-30T07:05:59.557Z,5.40
2023-03-30T07:07:06.516Z,3.60
2023-03-30T07:08:08.562Z,1.90
2023-03-30T07:09:13.388Z,4.40
2023-03-30T07:10:15.763Z,3.20
2023-03-30T07:11:19.514Z,0.60
2023-03-30T07:12:21.900Z,2.70
2023-03-30T07:13:24.296Z,5.00
2023-03-30T07:14:27.328Z,3.80
2023-03-30T07:15:30.514Z,3.82
2023-03-30T07:16:33.248Z,7.10
2023-03-30T07:17:38.457Z,4.10
2023-03-30T07:18:41.121Z,3.60
2023-03-30T07:19:43.528Z,3.40
2023-03-30T07:20:45.943Z,3.09
2023-03-30T07:21:50.215Z,2.10
2023-03-30T07:22:53.374Z,2.90
2023-03-30T07:23:55.396Z,2.50
2023-03-30T07:24:59.863Z,4.50
2023-03-30T07:26:05.558Z,3.70
2023-03-30T07:27:16.355Z,5.00
2023-03-30T07:28:19.783Z,2.50
2023-03-30T07:29:23.374Z,2.70
2023-03-30T07:30:27.338Z,1.00
2023-03-30T07:31:31.394Z,0.70
2023-03-30T07:32:34.097Z,4.60
2023-03-30T07:33:36.376Z,3.30
2023-03-30T07:34:39.344Z,3.30
2023-03-30T07:35:43.209Z,4.50
2023-03-30T07:36:45.457Z,4.50
2023-03-30T07:37:50.864Z,4.50
2023-03-30T07:38:52.040Z,4.60
2023-03-30T07:39:55.214Z,4.90
2023-03-30T07:40:57.757Z,4.40
2023-03-30T07:42:01.612Z,5.64
2023-03-30T07:43:03.851Z,4.40
2023-03-30T07:44:06.528Z,2.60
2023-03-30T07:45:10.701Z,2.90
2023-03-30T07:46:14.137Z,4.30
2023-03-30T07:47:19.198Z,2.40
2023-03-30T07:48:21.376Z,1.20
2023-03-30T07:49:23.531Z,3.50
2023-03-30T07:50:25.698Z,4.30
2023-03-30T07:51:31.295Z,6.90
2023-03-30T07:52:35.146Z,6.20
2023-03-30T07:53:38.247Z,1.90
2023-03-30T07:54:43.185Z,4.90
2023-03-30T07:55:47.060Z,2.40
2023-03-30T07:56:50.952Z,3.70
2023-03-30T07:57:53.668Z,2.80
2023-03-30T07:58:56.554Z,2.40
2023-03-30T08:00:01.010Z,2.20
2023-03-30T08:01:18.075Z,2.30
2023-03-30T08:02:23.077Z,3.40
2023-03-30T08:03:26.942Z,3.00
2023-03-30T08:04:30.071Z,2.50
2023-03-30T08:05:32.300Z,1.80
2023-03-30T08:06:37.349Z,3.30
2023-03-30T08:07:39.355Z,2.70
2023-03-30T08:08:43.776Z,2.30
2023-03-30T08:09:46.183Z,2.60
2023-03-30T08:10:49.562Z,3.30
2023-03-30T08:11:51.779Z,3.30
2023-03-30T08:12:53.752Z,3.50
2023-03-30T08:13:56.539Z,4.27
2023-03-30T08:14:59.215Z,2.90
2023-03-30T08:16:01.711Z,3.50
2023-03-30T08:17:03.794Z,3.10
2023-03-30T08:18:06.481Z,2.20
2023-03-30T08:19:08.599Z,0.60
2023-03-30T08:20:12.325Z,3.30
2023-03-30T08:21:14.313Z,2.45
2023-03-30T08:22:16.256Z,3.80
2023-03-30T08:23:20.107Z,2.00
2023-03-30T08:24:22.808Z,2.10
2023-03-30T08:25:25.200Z,4.90
2023-03-30T08:26:27.657Z,2.50
2023-03-30T08:27:30.656Z,2.10
2023-03-30T08:28:32.750Z,2.60
2023-03-30T08:29:34.997Z,4.10
2023-03-30T08:30:37.573Z,3.10
2023-03-30T08:31:39.602Z,3.20
2023-03-30T08:32:41.810Z,2.00
2023-03-30T08:33:44.259Z,3.40
2023-03-30T08:34:46.324Z,3.40
2023-03-30T08:35:48.589Z,4.00
2023-03-30T08:36:51.485Z,4.40
2023-03-30T08:37:53.549Z,2.30
2023-03-30T08:38:55.560Z,3.30
2023-03-30T08:39:57.580Z,2.90
2023-03-30T08:40:59.772Z,1.60
2023-03-30T08:42:22.999Z,5.70
2023-03-30T08:43:31.623Z,2.80
2023-03-30T08:44:37.670Z,2.50
2023-03-30T08:45:42.464Z,2.50
2023-03-30T08:46:44.171Z,2.60
2023-03-30T08:47:48.067Z,3.10
2023-03-30T08:48:50.232Z,2.20
2023-03-30T08:51:28.865Z,3.80
2023-03-30T08:52:30.855Z,2.40
2023-03-30T08:53:33.736Z,3.20
2023-03-30T08:54:36.094Z,4.09
2023-03-30T08:55:53.817Z,3.20
2023-03-30T08:58:21.609Z,3.00
2023-03-30T08:59:32.954Z,4.00
2023-03-30T09:00:57.046Z,3.10
2023-03-30T09:02:05.360Z,3.70
2023-03-30T09:04:39.153Z,3.50
2023-03-30T09:07:14.320Z,2.10
2023-03-30T09:08:21.196Z,4.20
2023-03-30T09:09:27.022Z,5.00
2023-03-30T09:10:31.619Z,0.50
2023-03-30T09:11:35.292Z,2.10
2023-03-30T09:14:04.258Z,14.30
2023-03-30T09:15:33.845Z,8.60
2023-03-30T09:16:42.431Z,8.50
2023-03-30T09:18:11.166Z,8.00
2023-03-30T09:20:36.270Z,6.30
2023-03-30T09:21:38.859Z,5.60
2023-03-30T09:22:42.243Z,4.10
2023-03-30T09:23:44.254Z,8.20
2023-03-30T09:24:46.295Z,5.90
2023-03-30T09:25:55.358Z,4.50
2023-03-30T09:27:07.325Z,2.90
2023-03-30T09:28:19.418Z,3.50
2023-03-30T09:29:28.071Z,3.60
2023-03-30T09:32:13.406Z,2.60
2023-03-30T09:33:35.846Z,4.20
2023-03-30T09:36:22.396Z,3.00
2023-03-30T09:37:24.411Z,2.10
2023-03-30T09:38:26.418Z,3.90
2023-03-30T09:39:30.439Z,2.22
2023-03-30T09:40:42.620Z,2.70
2023-03-30T09:42:11.053Z,2.30
2023-03-30T09:43:21.254Z,3.80
2023-03-30T09:44:37.432Z,3.60
2023-03-30T09:45:39.524Z,3.20
2023-03-30T09:46:42.845Z,2.00
2023-03-30T09:47:45.007Z,3.00
2023-03-30T09:48:48.703Z,2.00
2023-03-30T09:49:58.261Z,3.10
2023-03-30T09:51:00.375Z,3.00
2023-03-30T09:53:22.934Z,2.80
2023-03-30T09:54:25.372Z,2.90
2023-03-30T09:55:32.052Z,4.00
2023-03-30T09:56:42.352Z,3.30
2023-03-30T09:57:44.396Z,2.50
2023-03-30T09:58:46.340Z,4.50
2023-03-30T09:59:48.363Z,1.00
2023-03-30T10:01:03.472Z,2.30
2023-03-30T10:02:19.696Z,2.10
2023-03-30T10:03:22.437Z,2.80
2023-03-30T10:04:24.715Z,3.20
2023-03-30T10:05:27.550Z,2.70
2023-03-30T10:06:30.906Z,3.55
2023-03-30T10:07:35.782Z,4.10
2023-03-30T10:08:51.657Z,3.50
2023-03-30T10:09:54.041Z,3.90
2023-03-30T10:10:57.056Z,4.70
2023-03-30T10:11:59.297Z,3.50
2023-03-30T10:13:13.952Z,4.00
2023-03-30T10:14:28.955Z,3.60
2023-03-30T10:15:32.791Z,4.30
2023-03-30T10:16:34.992Z,3.70
2023-03-30T10:17:37.394Z,3.80
2023-03-30T10:18:42.468Z,3.70
2023-03-30T10:19:48.651Z,3.40
2023-03-30T10:23:20.321Z,4.90
2023-03-30T10:25:34.023Z,3.10
2023-03-30T10:26:36.962Z,4.30
2023-03-30T10:27:38.987Z,2.45
2023-03-30T10:28:43.718Z,3.60
2023-03-30T10:29:47.640Z,2.00
2023-03-30T10:32:14.612Z,3.60
2023-03-30T10:33:16.985Z,3.30
2023-03-30T10:35:43.853Z,3.30
2023-03-30T10:36:50.046Z,2.90
2023-03-30T10:37:52.907Z,4.90
2023-03-30T10:38:54.915Z,2.50
2023-03-30T10:39:56.887Z,4.60
2023-03-30T10:42:22.138Z,2.00
2023-03-30T10:43:28.464Z,1.00
2023-03-30T10:44:38.656Z,3.50
2023-03-30T10:45:46.105Z,2.30
2023-03-30T10:46:48.578Z,3.60
2023-03-30T10:49:22.080Z,2.80
2023-03-30T10:50:28.345Z,2.00
2023-03-30T10:51:55.452Z,3.10
2023-03-30T10:53:22.556Z,3.10
2023-03-30T10:54:37.264Z,3.20
2023-03-30T10:56:18.232Z,3.90
2023-03-30T10:57:21.498Z,3.50
2023-03-30T10:58:36.093Z,4.10
2023-03-30T10:59:47.943Z,3.60
2023-03-30T11:00:59.823Z,4.20
2023-03-30T11:02:23.477Z,4.10
2023-03-30T11:03:27.183Z,4.90
2023-03-30T11:04:38.352Z,3.20
2023-03-30T11:05:43.469Z,2.60
2023-03-30T11:06:46.552Z,5.60
2023-03-30T11:08:03.791Z,3.00
2023-03-30T11:09:06.481Z,2.80
2023-03-30T11:10:19.338Z,4.10
2023-03-30T11:11:22.933Z,4.00
2023-03-30T11:12:26.062Z,5.70
2023-03-30T11:13:38.516Z,2.30
2023-03-30T11:14:53.115Z,5.90
2023-03-30T11:16:17.066Z,2.80
2023-03-30T11:17:28.674Z,2.80
2023-03-30T11:18:37.654Z,3.00
2023-03-30T11:21:07.556Z,8.90
2023-03-30T11:23:57.544Z,5.50
2023-03-30T11:25:00.038Z,5.30
2023-03-30T11:26:14.027Z,4.60
2023-03-30T11:27:19.417Z,3.90
2023-03-30T11:28:42.364Z,3.00
2023-03-30T11:31:20.918Z,2.80
2023-03-30T11:32:56.543Z,3.00
2023-03-30T11:35:33.376Z,2.90
2023-03-30T11:36:39.740Z,2.20
2023-03-30T11:37:54.529Z,5.90
2023-03-30T11:39:00.129Z,3.50
2023-03-30T11:40:30.159Z,3.30
2023-03-30T11:41:42.794Z,3.00
2023-03-30T11:42:44.708Z,3.90
2023-03-30T11:43:46.709Z,4.50
2023-03-30T11:44:49.023Z,4.00
2023-03-30T11:46:04.007Z,3.00
2023-03-30T11:47:31.581Z,2.00
2023-03-30T11:49:00.186Z,1.80
2023-03-30T11:50:24.394Z,2.50
2023-03-30T11:51:45.295Z,3.60
2023-03-30T11:53:03.750Z,2.70
2023-03-30T11:54:12.243Z,2.10
2023-03-30T11:55:35.093Z,3.60
2023-03-30T11:56:53.326Z,0.20
2023-03-30T11:58:14.351Z,2.30
2023-03-30T11:59:43.403Z,3.00
2023-03-30T12:01:11.009Z,3.20
2023-03-30T12:03:46.380Z,2.90
2023-03-30T12:05:04.030Z,3.70
2023-03-30T12:06:22.346Z,2.00
2023-03-30T12:07:43.373Z,2.10
2023-03-30T12:09:07.568Z,4.30
2023-03-30T12:11:33.880Z,6.50
2023-03-30T12:12:37.373Z,4.50
2023-03-30T12:13:50.196Z,4.40
2023-03-30T12:15:05.383Z,3.60
2023-03-30T12:16:09.642Z,3.90
2023-03-30T12:17:18.685Z,2.50
2023-03-30T12:19:55.560Z,4.00
2023-03-30T12:22:20.868Z,6.50
2023-03-30T12:23:35.906Z,4.80
2023-03-30T12:25:03.256Z,5.80
2023-03-30T12:26:24.039Z,5.30
2023-03-30T12:27:27.102Z,6.70
2023-03-30T12:29:05.025Z,6.00
2023-03-30T12:30:59.023Z,3.50
2023-03-30T12:32:05.726Z,4.20
2023-03-30T12:33:13.561Z,3.30
2023-03-30T12:34:16.156Z,2.30
2023-03-30T12:35:57.839Z,2.90
2023-03-30T12:37:15.625Z,4.40
2023-03-30T12:39:42.476Z,2.70
2023-03-30T12:40:55.912Z,1.00
2023-03-30T12:42:21.833Z,2.30
2023-03-30T12:43:50.567Z,2.40
2023-03-30T12:45:17.853Z,5.40
2023-03-30T12:46:29.480Z,4.70
2023-03-30T12:47:40.988Z,2.70
2023-03-30T12:48:56.137Z,2.80
2023-03-30T12:50:20.598Z,3.00
2023-03-30T12:51:30.348Z,2.10
2023-03-30T12:52:48.911Z,3.60
2023-03-30T12:56:05.557Z,2.60
2023-03-30T12:57:31.594Z,1.40
2023-03-30T12:59:13.168Z,2.90
2023-03-30T13:02:42.451Z,3.60
2023-03-30T13:03:52.729Z,2.20
2023-03-30T13:04:55.209Z,2.20
2023-03-30T13:05:58.402Z,2.90
2023-03-30T13:07:18.198Z,3.20
2023-03-30T13:08:38.833Z,2.30
2023-03-30T13:09:58.326Z,2.90
2023-03-30T13:11:15.551Z,2.80
2023-03-30T13:12:36.538Z,2.00
2023-03-30T13:13:56.054Z,2.00
2023-03-30T13:16:13.981Z,7.40
2023-03-30T13:17:16.958Z,3.00
2023-03-30T13:18:30.647Z,2.30
2023-03-30T13:19:36.321Z,5.80
2023-03-30T13:20:58.153Z,2.60
2023-03-30T13:22:14.260Z,2.60
2023-03-30T13:23:22.974Z,2.70
2023-03-30T13:24:31.604Z,3.60
2023-03-30T13:25:42.427Z,2.30
2023-03-30T13:26:47.281Z,4.50
2023-03-30T13:27:52.271Z,2.50
2023-03-30T13:29:06.563Z,2.50
2023-03-30T13:30:11.820Z,4.50
2023-03-30T13:31:38.594Z,3.30
2023-03-30T13:32:44.790Z,4.10
2023-03-30T13:33:50.030Z,3.50
2023-03-30T13:35:06.971Z,4.10
2023-03-30T13:36:14.942Z,4.20
2023-03-30T13:37:40.501Z,3.30
2023-03-30T13:39:01.530Z,4.00
2023-03-30T13:40:27.647Z,2.70
2023-03-30T13:43:25.180Z,2.40
2023-03-30T13:44:43.117Z,3.00
2023-03-30T13:46:13.718Z,2.40
2023-03-30T13:47:16.753Z,3.10
2023-03-30T13:48:22.718Z,3.10
2023-03-30T13:49:31.488Z,2.60
2023-03-30T13:50:33.905Z,2.00
2023-03-30T13:51:38.017Z,3.70
2023-03-30T13:52:43.586Z,3.70
2023-03-30T13:55:04.266Z,3.20
2023-03-30T13:56:10.354Z,2.27
2023-03-30T13:57:23.022Z,1.90
2023-03-30T13:58:31.650Z,3.20
2023-03-30T13:59:35.229Z,2.40
2023-03-30T14:00:50.140Z,2.20
2023-03-30T14:01:53.929Z,3.10
2023-03-30T14:02:56.794Z,3.00
2023-03-30T14:03:59.550Z,0.82
2023-03-30T14:05:18.024Z,3.36
2023-03-30T14:06:23.205Z,2.60
2023-03-30T14:07:25.191Z,1.40
2023-03-30T14:08:28.361Z,2.90
2023-03-30T14:09:30.483Z,3.50
2023-03-30T14:10:32.437Z,3.50
2023-03-30T14:11:49.579Z,2.00
2023-03-30T14:12:57.249Z,4.50
2023-03-30T14:14:01.343Z,2.80
2023-03-30T14:16:37.187Z,1.70
2023-03-30T14:17:41.934Z,2.30
2023-03-30T14:18:45.709Z,3.90
2023-03-30T14:20:08.525Z,2.50
2023-03-30T14:21:14.141Z,2.30
2023-03-30T14:22:19.302Z,2.20
2023-03-30T14:23:38.412Z,4.00
2023-03-30T14:24:43.380Z,4.00
2023-03-30T14:25:45.475Z,4.00
2023-03-30T14:26:47.536Z,5.70
2023-03-30T14:27:49.696Z,3.60
2023-03-30T14:30:26.880Z,2.50
2023-03-30T14:31:42.847Z,2.80
2023-03-30T14:33:09.420Z,5.60
2023-03-30T14:34:25.796Z,4.20
2023-03-30T14:35:29.949Z,3.40
2023-03-30T14:36:32.502Z,2.00
2023-03-30T14:37:35.560Z,2.60
2023-03-30T14:38:41.855Z,4.30
2023-03-30T14:39:58.978Z,3.80
2023-03-30T14:41:10.588Z,7.00
2023-03-30T14:42:18.392Z,5.70
2023-03-30T14:44:38.475Z,3.10
2023-03-30T14:45:41.798Z,3.90
2023-03-30T14:46:51.268Z,3.40
2023-03-30T14:47:57.624Z,4.00
2023-03-30T14:50:13.600Z,2.80
2023-03-30T14:51:29.184Z,2.70
2023-03-30T14:52:35.761Z,3.30
2023-03-30T14:53:37.676Z,3.40
2023-03-30T14:54:48.761Z,3.90
2023-03-30T14:55:58.524Z,3.90
2023-03-30T14:57:07.295Z,4.30
2023-03-30T14:58:16.021Z,4.50
2023-03-30T14:59:19.292Z,6.20
2023-03-30T15:00:23.192Z,7.40
2023-03-30T15:01:30.231Z,6.30
2023-03-30T15:02:33.014Z,3.90
2023-03-30T15:03:38.869Z,4.70
2023-03-30T15:04:42.735Z,5.64
2023-03-30T15:05:47.212Z,6.60
2023-03-30T15:06:49.556Z,4.60
2023-03-30T15:07:52.278Z,1.60
2023-03-30T15:09:00.880Z,4.00
2023-03-30T15:10:04.949Z,5.40
2023-03-30T15:12:28.678Z,3.40
2023-03-30T15:14:44.208Z,5.10
2023-03-30T15:19:06.553Z,8.70
2023-03-30T15:22:29.058Z,6.80
2023-03-30T15:23:34.461Z,8.00
2023-03-30T15:24:42.180Z,6.70
2023-03-30T15:25:44.367Z,8.10
2023-03-30T15:26:48.162Z,2.00
2023-03-30T15:29:03.968Z,4.80
2023-03-30T15:31:24.565Z,4.90
2023-03-30T15:33:52.920Z,5.80
2023-03-30T15:35:15.710Z,2.50
2023-03-30T15:37:55.880Z,3.30
2023-03-30T15:39:00.362Z,3.00
2023-03-30T15:40:05.922Z,6.50
2023-03-30T15:42:32.867Z,4.40
2023-03-30T15:43:38.247Z,5.80
2023-03-30T15:44:45.090Z,6.00
2023-03-30T15:45:55.380Z,6.30
2023-03-30T15:46:57.630Z,2.70
2023-03-30T15:48:06.068Z,5.20
2023-03-30T15:49:14.727Z,5.40
2023-03-30T15:50:18.147Z,5.10
2023-03-30T15:51:39.546Z,7.40
2023-03-30T15:52:42.465Z,5.70
2023-03-30T15:54:09.776Z,6.64
2023-03-30T15:56:59.899Z,3.70
2023-03-30T15:58:03.919Z,7.10
2023-03-30T15:59:11.501Z,6.50
2023-03-30T16:00:20.929Z,7.60
2023-03-30T16:02:48.735Z,11.70
2023-03-30T16:03:55.990Z,8.00
2023-03-30T16:05:04.101Z,9.10
2023-03-30T16:06:09.269Z,8.00
2023-03-30T16:07:24.045Z,9.20
2023-03-30T16:08:30.468Z,9.50
2023-03-30T16:09:32.505Z,10.10
2023-03-30T16:10:38.731Z,7.60
2023-03-30T16:11:43.986Z,9.30
2023-03-30T16:12:48.962Z,7.30
2023-03-30T16:13:52.858Z,8.10
2023-03-30T16:14:55.353Z,11.00
2023-03-30T16:15:58.917Z,15.20
2023-03-30T16:17:01.637Z,10.90
2023-03-30T16:18:03.902Z,13.00
2023-03-30T16:19:25.928Z,11.50
2023-03-30T16:20:30.926Z,12.20
2023-03-30T16:21:34.699Z,10.00
2023-03-30T16:22:39.709Z,11.60
2023-03-30T16:23:44.105Z,1.50
2023-03-30T16:24:48.224Z,10.40
2023-03-30T16:25:50.763Z,13.30
2023-03-30T16:26:55.953Z,11.00
2023-03-30T16:28:00.153Z,10.90
2023-03-30T16:29:03.616Z,11.10
2023-03-30T16:30:27.795Z,10.40
2023-03-30T16:31:32.866Z,14.70
2023-03-30T16:32:35.796Z,11.40
2023-03-30T16:33:38.688Z,14.50
2023-03-30T16:34:42.951Z,15.70
2023-03-30T16:35:45.384Z,14.30
2023-03-30T16:36:48.713Z,12.30
2023-03-30T16:37:51.330Z,13.80
2023-03-30T16:38:54.244Z,15.10
2023-03-30T16:39:57.644Z,12.10
2023-03-30T16:41:00.106Z,19.20
2023-03-30T16:42:09.770Z,19.90
2023-03-30T16:43:14.898Z,17.80
2023-03-30T16:44:23.000Z,21.40
2023-03-30T16:46:42.041Z,19.00
2023-03-30T16:47:53.258Z,18.10
2023-03-30T16:48:55.843Z,20.30
2023-03-30T16:50:04.830Z,16.91